x

North Equatorial One- 470 Nm East Of Martinique (41040) Wave Buoy

1:50pm - Wed 1st Apr 2015 All times are UTC.

  • Sig Wave height 6.2ft
  • Swell Direction
  • Peak Period 7s
  • Average Period 5s
  • Wind
    20mph, 22mph gusts
  • Sea Temp 79°f
  • Air Temp 78°f
  • Sea Pressure 1019.4mb

More Historic Weather Station data

Upgrade to MSW Pro to gain access to the past 30 days of data for over 8000 Wavebouys and Weather Stations around the globe.

Join Pro

Comparision Forecast

View Surf forecast
   
Wed 04/01 1:50pm 6ft 7s 5s 20 22 mph 1019.4mb 79f 78f
12:50pm 6.5ft 6s 6s 20 25 mph 1019.4mb 79f 78f
11:50am 6ft 6s 6s 20 25 mph 1018.8mb 79f 78f
10:50am 6.5ft 7s 6s 20 25 mph 1017.8mb 79f 78f
9:50am 6.5ft 7s 6s 20 25 mph 1017.3mb 79f 77f
8:50am 6ft 7s 5s 20 22 mph 1016.7mb 79f 77f
7:50am 6ft 7s 6s 20 25 mph 1016.1mb 79f 77f
6:50am 6ft 6s 5s 18 22 mph 1016mb 79f 77f
5:50am 5.5ft 11s 5s 16 20 mph 1016.1mb 79f 77f
4:50am 5.5ft 11s 6s 16 20 mph 1016.6mb 79f 77f
3:50am 5ft 6s 5s 16 20 mph 1017.2mb 79f 77f
2:50am 6ft 11s 6s 16 18 mph 1017.7mb 79f 78f
1:50am 5ft 11s 5s 18 20 mph 1017.9mb 79f 78f
12:50am 5.5ft 10s 5s 18 22 mph 1017.7mb 79f 78f
Tue 03/31 11:50pm 5ft 7s 5s 20 25 mph 1017.1mb 79f 77f
10:50pm 5ft 7s 6s 18 20 mph 1016.8mb 80f 78f
9:50pm 5ft 7s 6s 16 18 mph 1016.2mb 80f 78f
8:50pm 5.5ft 6s 6s 13 18 mph 1015.8mb 80f 78f
7:50pm 5ft 11s 6s 13 18 mph 1015.5mb 80f 78f
6:50pm 5.5ft 6s 6s 16 18 mph 1015.6mb 80f 78f
5:50pm 5ft 6s 6s 11 16 mph 1016.1mb 80f 78f
4:50pm 5.5ft 7s 6s 13 16 mph 1016.8mb 80f 78f
3:50pm 5ft 10s 6s 11 16 mph 1017.6mb 80f 78f
2:50pm 5ft 7s 6s 11 13 mph 1018mb 80f 77f
1:50pm 6ft 7s 6s 11 16 mph 1018.2mb 79f 77f
12:50pm 6ft 11s 6s 11 13 mph 1017.9mb 79f 78f
11:50am 6ft 6s 6s 16 18 mph 1017.3mb 79f 77f
10:50am 6ft 10s 6s 18 22 mph 1016.7mb 79f 76f
9:50am 6ft 7s 6s 18 22 mph 1015.7mb 79f 77f
8:50am 5ft 10s 6s 18 22 mph 1015.1mb 79f 77f
7:50am 6ft 11s 6s 11 13 mph 1015.3mb 79f 73f
6:50am 5.5ft 11s 5s 20 22 mph 1015.1mb 79f 73f
5:50am 5ft 12s 6s 18 22 mph 1015.2mb 79f 77f
4:50am 5.5ft 10s 6s 18 20 mph 1015.8mb 79f 77f
3:50am 5.5ft 11s 6s 18 20 mph 1016.4mb 79f 77f
2:50am 5ft 9s 6s 18 20 mph 1016.7mb 79f 77f
1:50am 6ft 11s 6s 18 20 mph 1016.8mb 79f 77f
12:50am 5.5ft 11s 6s 16 20 mph 1016.6mb 79f 77f
Mon 03/30 11:50pm 5.5ft 8s 6s 16 18 mph 1016.5mb 79f 77f
10:50pm 5.5ft 12s 6s 16 18 mph 1016.2mb 79f 77f
9:50pm 5ft 7s 6s 13 16 mph 1015.8mb 79f 77f
8:50pm 5.5ft 11s 6s 13 18 mph 1015.2mb 80f 77f
7:50pm 6ft 11s 6s 16 18 mph 1014.8mb 80f 78f
6:50pm 5.5ft 11s 6s 13 16 mph 1014.9mb 80f 78f
5:50pm 6ft 11s 6s 13 16 mph 1015.6mb 80f 77f
4:50pm 6ft 11s 6s 13 16 mph 1016.1mb 80f 77f
3:50pm 6ft 8s 6s 9 13 mph 1017.1mb 80f 75f
2:50pm 6.5ft 9s 6s 13 18 mph 1017.8mb 79f 76f
1:50pm 7ft 10s 6s 18 22 mph 1018mb 79f 77f
12:50pm 6.5ft 12s 6s 20 25 mph 1017.9mb 79f 76f
11:50am 6.5ft 10s 6s 11 13 mph 1017.9mb 79f 72f
10:50am 6.5ft 7s 5s 20 25 mph 1017mb 79f 73f
9:50am 6ft 10s 6s 22 29 mph 1016mb 79f 75f
8:50am 6.5ft 8s 6s 18 22 mph 1015.6mb 79f 77f
7:50am 6.5ft 7s 6s 18 20 mph 1015.2mb 79f 77f
6:50am 6.5ft 8s 6s 16 20 mph 1015.6mb 79f 73f
5:50am 6ft 11s 6s 20 22 mph 1015.6mb 79f 76f
4:50am 6ft 10s 6s 13 16 mph 1016.2mb 79f 76f
3:50am 6ft 8s 6s 18 22 mph 1016.8mb 79f 76f
2:50am 6.5ft 11s 6s 16 20 mph 1017.2mb 79f 77f
1:50am 6ft 8s 6s 18 20 mph 1017.4mb 79f 77f
12:50am 7ft 10s 6s 16 20 mph 1017.8mb 79f 77f
Sun 03/29 11:50pm 7ft 8s 6s 16 18 mph 1017.5mb 79f 77f
10:50pm 7ft 8s 6s 16 18 mph 1017.1mb 79f 78f
9:50pm 6.5ft 7s 6s 16 20 mph 1016.7mb 79f 78f
8:50pm 7ft 8s 6s 16 20 mph 1016.3mb 79f 78f
7:50pm 7ft 8s 6s 18 20 mph 1016.2mb 79f 78f
6:50pm 7ft 8s 6s 18 22 mph 1016.5mb 79f 78f
5:50pm 8ft 8s 6s 20 25 mph 1016.8mb 79f 78f
4:50pm 7.5ft 9s 6s 18 20 mph 1017.9mb 79f 78f
3:50pm 7.5ft 10s 6s 18 22 mph 1018.5mb 79f 78f
2:50pm 8.5ft 9s 6s 20 22 mph 1019mb 79f 78f
1:50pm 8.5ft 9s 6s 20 22 mph 1019.7mb 79f 78f
12:50pm 8ft 8s 6s 20 25 mph 1019.5mb 79f 78f
11:50am 9ft 10s 6s 25 29 mph 1018.9mb 79f 78f
10:50am 8.5ft 8s 6s 25 29 mph 1018.3mb 79f 78f
9:50am 8.5ft 9s 6s 29 34 mph 1017.5mb 79f 76f
8:50am 9ft 9s 6s 20 22 mph 1017.4mb 79f 76f
7:50am 8.5ft 10s 6s 20 25 mph 1017mb 79f 76f
6:50am 8ft 10s 6s 25 29 mph 1016.6mb 79f 77f
5:50am 8ft 9s 6s 22 25 mph 1017mb 79f 77f
4:50am 7.5ft 9s 6s 22 27 mph 1017.9mb 79f 76f
3:50am 7.5ft 9s 6s 20 27 mph 1018.9mb 79f 75f
2:50am 7ft 9s 6s 18 25 mph 1019.7mb 79f 78f
1:50am 8ft 8s 6s 18 22 mph 1019.8mb 79f 78f
12:50am 8ft 7s 6s 20 25 mph 1019.6mb 79f 78f
Sat 03/28 11:50pm 8ft 8s 6s 20 25 mph 1019.2mb 79f 78f
10:50pm 8ft 7s 6s 20 25 mph 1018.4mb 79f 78f
9:50pm 8ft 8s 6s 20 22 mph 1018.1mb 80f 78f
8:50pm 8ft 9s 6s 18 22 mph 1017.8mb 80f 78f
7:50pm 7.5ft 9s 6s 18 22 mph 1017.6mb 80f 78f
6:50pm 8ft 7s 6s 20 22 mph 1017.7mb 80f 78f
5:50pm 8ft 10s 6s 18 25 mph 1018.2mb 80f 78f
4:50pm 8ft 8s 6s 18 22 mph 1018.8mb 80f 78f
3:50pm 8ft 8s 6s 20 25 mph 1019.5mb 80f 78f